sensor_id;sensor_type;location;lat;lon;timestamp;temperature;humidity
13713;DHT22;6928;50.546;7.120;2022-07-23T00:02:23;19.75;74.43
13713;DHT22;6928;50.546;7.120;2022-07-23T00:04:50;19.80;74.14
13713;DHT22;6928;50.546;7.120;2022-07-23T00:07:17;19.83;73.90
13713;DHT22;6928;50.546;7.120;2022-07-23T00:09:44;19.86;73.81
13713;DHT22;6928;50.546;7.120;2022-07-23T00:12:10;19.99;73.16
13713;DHT22;6928;50.546;7.120;2022-07-23T00:14:38;19.93;73.12
13713;DHT22;6928;50.546;7.120;2022-07-23T00:17:05;19.85;73.26
13713;DHT22;6928;50.546;7.120;2022-07-23T00:19:32;19.75;73.92
13713;DHT22;6928;50.546;7.120;2022-07-23T00:21:59;19.80;74.01
13713;DHT22;6928;50.546;7.120;2022-07-23T00:24:26;20.03;74.06
13713;DHT22;6928;50.546;7.120;2022-07-23T00:26:53;20.14;74.74
13713;DHT22;6928;50.546;7.120;2022-07-23T00:29:19;19.96;74.36
13713;DHT22;6928;50.546;7.120;2022-07-23T00:31:47;19.80;74.67
13713;DHT22;6928;50.546;7.120;2022-07-23T00:34:14;19.93;75.10
13713;DHT22;6928;50.546;7.120;2022-07-23T00:36:41;19.97;74.79
13713;DHT22;6928;50.546;7.120;2022-07-23T00:39:08;19.76;75.90
13713;DHT22;6928;50.546;7.120;2022-07-23T00:41:35;19.83;75.70
13713;DHT22;6928;50.546;7.120;2022-07-23T00:44:18;19.62;75.91
13713;DHT22;6928;50.546;7.120;2022-07-23T00:46:49;19.59;76.34
13713;DHT22;6928;50.546;7.120;2022-07-23T00:49:20;19.58;76.28
13713;DHT22;6928;50.546;7.120;2022-07-23T00:51:48;19.69;75.78
13713;DHT22;6928;50.546;7.120;2022-07-23T00:54:15;19.73;75.52
13713;DHT22;6928;50.546;7.120;2022-07-23T00:56:44;19.75;75.31
13713;DHT22;6928;50.546;7.120;2022-07-23T00:59:11;19.58;75.22
13713;DHT22;6928;50.546;7.120;2022-07-23T01:01:38;19.58;76.00
13713;DHT22;6928;50.546;7.120;2022-07-23T01:04:06;19.44;76.51
13713;DHT22;6928;50.546;7.120;2022-07-23T01:06:36;19.62;76.05
13713;DHT22;6928;50.546;7.120;2022-07-23T01:09:05;19.62;76.09
13713;DHT22;6928;50.546;7.120;2022-07-23T01:11:33;19.52;76.04
13713;DHT22;6928;50.546;7.120;2022-07-23T01:14:11;19.52;76.24
13713;DHT22;6928;50.546;7.120;2022-07-23T01:16:39;19.42;76.31
13713;DHT22;6928;50.546;7.120;2022-07-23T01:19:07;19.41;76.29
13713;DHT22;6928;50.546;7.120;2022-07-23T01:21:37;19.42;76.31
13713;DHT22;6928;50.546;7.120;2022-07-23T01:24:07;19.48;75.95
13713;DHT22;6928;50.546;7.120;2022-07-23T01:26:34;19.55;75.46
13713;DHT22;6928;50.546;7.120;2022-07-23T01:29:02;19.55;75.43
13713;DHT22;6928;50.546;7.120;2022-07-23T01:31:29;19.55;75.31
13713;DHT22;6928;50.546;7.120;2022-07-23T01:33:56;19.41;75.60
13713;DHT22;6928;50.546;7.120;2022-07-23T01:36:23;19.34;75.57
13713;DHT22;6928;50.546;7.120;2022-07-23T01:38:51;19.26;75.79
13713;DHT22;6928;50.546;7.120;2022-07-23T01:41:19;19.37;75.53
13713;DHT22;6928;50.546;7.120;2022-07-23T01:43:46;19.38;75.54
13713;DHT22;6928;50.546;7.120;2022-07-23T01:46:13;19.39;75.25
13713;DHT22;6928;50.546;7.120;2022-07-23T01:48:40;19.41;75.58
13713;DHT22;6928;50.546;7.120;2022-07-23T01:51:07;19.27;75.98
13713;DHT22;6928;50.546;7.120;2022-07-23T01:53:34;19.27;75.90
13713;DHT22;6928;50.546;7.120;2022-07-23T01:56:01;19.24;76.30
13713;DHT22;6928;50.546;7.120;2022-07-23T01:58:30;19.24;76.15
13713;DHT22;6928;50.546;7.120;2022-07-23T02:00:57;19.38;76.05
13713;DHT22;6928;50.546;7.120;2022-07-23T02:03:24;19.28;76.17
13713;DHT22;6928;50.546;7.120;2022-07-23T02:05:51;19.15;76.54
13713;DHT22;6928;50.546;7.120;2022-07-23T02:08:18;19.11;77.04
13713;DHT22;6928;50.546;7.120;2022-07-23T02:10:45;19.08;77.28
13713;DHT22;6928;50.546;7.120;2022-07-23T02:13:12;19.10;76.70
13713;DHT22;6928;50.546;7.120;2022-07-23T02:15:40;18.93;77.36
13713;DHT22;6928;50.546;7.120;2022-07-23T02:18:06;18.93;77.69
13713;DHT22;6928;50.546;7.120;2022-07-23T02:20:33;18.84;77.92
13713;DHT22;6928;50.546;7.120;2022-07-23T02:23:00;18.94;77.55
13713;DHT22;6928;50.546;7.120;2022-07-23T02:25:27;18.87;78.29
13713;DHT22;6928;50.546;7.120;2022-07-23T02:27:54;19.00;77.62
13713;DHT22;6928;50.546;7.120;2022-07-23T02:30:20;18.87;78.01
13713;DHT22;6928;50.546;7.120;2022-07-23T02:32:48;18.81;78.21
13713;DHT22;6928;50.546;7.120;2022-07-23T02:35:15;18.73;78.24
13713;DHT22;6928;50.546;7.120;2022-07-23T02:37:42;18.68;78.49
13713;DHT22;6928;50.546;7.120;2022-07-23T02:40:10;18.60;79.00
13713;DHT22;6928;50.546;7.120;2022-07-23T02:42:37;18.51;79.38
13713;DHT22;6928;50.546;7.120;2022-07-23T02:45:05;18.51;79.30
13713;DHT22;6928;50.546;7.120;2022-07-23T02:47:32;18.63;78.93
13713;DHT22;6928;50.546;7.120;2022-07-23T02:50:00;18.69;78.62
13713;DHT22;6928;50.546;7.120;2022-07-23T02:52:27;18.66;78.79
13713;DHT22;6928;50.546;7.120;2022-07-23T02:54:54;18.63;78.87
13713;DHT22;6928;50.546;7.120;2022-07-23T02:57:20;18.62;79.05
13713;DHT22;6928;50.546;7.120;2022-07-23T02:59:47;18.51;79.54
13713;DHT22;6928;50.546;7.120;2022-07-23T03:02:14;18.53;79.28
13713;DHT22;6928;50.546;7.120;2022-07-23T03:04:41;18.48;79.51
13713;DHT22;6928;50.546;7.120;2022-07-23T03:07:10;18.47;79.80
13713;DHT22;6928;50.546;7.120;2022-07-23T03:09:36;18.38;79.94
13713;DHT22;6928;50.546;7.120;2022-07-23T03:12:03;18.32;79.85
13713;DHT22;6928;50.546;7.120;2022-07-23T03:14:30;18.51;79.41
13713;DHT22;6928;50.546;7.120;2022-07-23T03:16:57;18.55;79.17
13713;DHT22;6928;50.546;7.120;2022-07-23T03:19:25;18.41;79.55
13713;DHT22;6928;50.546;7.120;2022-07-23T03:21:51;18.39;79.43
13713;DHT22;6928;50.546;7.120;2022-07-23T03:24:20;18.24;80.03
13713;DHT22;6928;50.546;7.120;2022-07-23T03:26:49;18.17;80.74
13713;DHT22;6928;50.546;7.120;2022-07-23T03:29:15;18.32;79.90
13713;DHT22;6928;50.546;7.120;2022-07-23T03:31:42;18.42;79.41
13713;DHT22;6928;50.546;7.120;2022-07-23T03:34:09;18.10;80.43
13713;DHT22;6928;50.546;7.120;2022-07-23T03:36:36;18.05;80.60
13713;DHT22;6928;50.546;7.120;2022-07-23T03:39:03;18.02;80.72
13713;DHT22;6928;50.546;7.120;2022-07-23T03:41:31;18.25;80.17
13713;DHT22;6928;50.546;7.120;2022-07-23T03:43:58;18.05;80.49
13713;DHT22;6928;50.546;7.120;2022-07-23T03:46:24;18.04;80.65
13713;DHT22;6928;50.546;7.120;2022-07-23T03:48:51;18.04;80.79
13713;DHT22;6928;50.546;7.120;2022-07-23T03:51:18;18.01;80.60
13713;DHT22;6928;50.546;7.120;2022-07-23T03:53:45;18.07;80.43
13713;DHT22;6928;50.546;7.120;2022-07-23T03:56:14;17.93;80.91
13713;DHT22;6928;50.546;7.120;2022-07-23T03:58:42;17.89;80.99
13713;DHT22;6928;50.546;7.120;2022-07-23T04:01:09;17.86;81.09
13713;DHT22;6928;50.546;7.120;2022-07-23T04:03:37;17.86;81.01
13713;DHT22;6928;50.546;7.120;2022-07-23T04:06:05;17.76;81.38
13713;DHT22;6928;50.546;7.120;2022-07-23T04:08:32;17.80;81.28
13713;DHT22;6928;50.546;7.120;2022-07-23T04:10:59;17.66;81.93
13713;DHT22;6928;50.546;7.120;2022-07-23T04:13:26;17.66;81.76
13713;DHT22;6928;50.546;7.120;2022-07-23T04:15:54;17.74;81.51
13713;DHT22;6928;50.546;7.120;2022-07-23T04:18:21;17.67;81.68
13713;DHT22;6928;50.546;7.120;2022-07-23T04:20:50;17.53;82.09
13713;DHT22;6928;50.546;7.120;2022-07-23T04:23:17;17.65;81.85
13713;DHT22;6928;50.546;7.120;2022-07-23T04:25:43;17.79;81.41
13713;DHT22;6928;50.546;7.120;2022-07-23T04:28:10;17.90;80.94
13713;DHT22;6928;50.546;7.120;2022-07-23T04:30:37;17.97;80.58
13713;DHT22;6928;50.546;7.120;2022-07-23T04:33:05;17.96;80.75
13713;DHT22;6928;50.546;7.120;2022-07-23T04:35:32;17.89;80.99
13713;DHT22;6928;50.546;7.120;2022-07-23T04:37:59;17.96;80.94
13713;DHT22;6928;50.546;7.120;2022-07-23T04:40:26;17.91;81.21
13713;DHT22;6928;50.546;7.120;2022-07-23T04:42:52;17.80;81.24
13713;DHT22;6928;50.546;7.120;2022-07-23T04:45:19;17.80;81.34
13713;DHT22;6928;50.546;7.120;2022-07-23T04:47:46;17.73;81.62
13713;DHT22;6928;50.546;7.120;2022-07-23T04:50:14;17.62;81.95
13713;DHT22;6928;50.546;7.120;2022-07-23T04:52:44;17.89;81.08
13713;DHT22;6928;50.546;7.120;2022-07-23T04:55:11;17.94;81.05
13713;DHT22;6928;50.546;7.120;2022-07-23T04:57:38;18.00;80.94
13713;DHT22;6928;50.546;7.120;2022-07-23T05:00:06;17.73;81.64
13713;DHT22;6928;50.546;7.120;2022-07-23T05:02:34;17.89;81.30
13713;DHT22;6928;50.546;7.120;2022-07-23T05:05:00;17.71;81.89
13713;DHT22;6928;50.546;7.120;2022-07-23T05:07:28;17.77;81.77
13713;DHT22;6928;50.546;7.120;2022-07-23T05:09:55;17.45;83.33
13713;DHT22;6928;50.546;7.120;2022-07-23T05:12:22;17.54;83.12
13713;DHT22;6928;50.546;7.120;2022-07-23T05:14:48;17.69;82.31
13713;DHT22;6928;50.546;7.120;2022-07-23T05:17:15;17.86;81.92
13713;DHT22;6928;50.546;7.120;2022-07-23T05:19:42;18.01;81.40
13713;DHT22;6928;50.546;7.120;2022-07-23T05:22:09;17.97;81.72
13713;DHT22;6928;50.546;7.120;2022-07-23T05:24:37;17.98;81.71
13713;DHT22;6928;50.546;7.120;2022-07-23T05:27:03;18.18;80.90
13713;DHT22;6928;50.546;7.120;2022-07-23T05:29:30;18.25;80.68
13713;DHT22;6928;50.546;7.120;2022-07-23T05:31:57;18.22;80.48
13713;DHT22;6928;50.546;7.120;2022-07-23T05:34:24;18.25;80.88
13713;DHT22;6928;50.546;7.120;2022-07-23T05:36:50;18.45;79.93
13713;DHT22;6928;50.546;7.120;2022-07-23T05:39:17;18.47;79.97
13713;DHT22;6928;50.546;7.120;2022-07-23T05:41:45;18.38;79.77
13713;DHT22;6928;50.546;7.120;2022-07-23T05:44:12;18.32;80.20
13713;DHT22;6928;50.546;7.120;2022-07-23T05:46:39;18.42;79.49
13713;DHT22;6928;50.546;7.120;2022-07-23T05:49:05;18.42;79.38
13713;DHT22;6928;50.546;7.120;2022-07-23T05:51:32;18.36;79.23
13713;DHT22;6928;50.546;7.120;2022-07-23T05:53:59;18.48;79.23
13713;DHT22;6928;50.546;7.120;2022-07-23T05:56:26;18.59;79.07
13713;DHT22;6928;50.546;7.120;2022-07-23T05:58:54;18.52;79.20
13713;DHT22;6928;50.546;7.120;2022-07-23T06:01:20;18.49;79.33
13713;DHT22;6928;50.546;7.120;2022-07-23T06:03:47;18.55;79.63
13713;DHT22;6928;50.546;7.120;2022-07-23T06:06:14;18.56;79.70
13713;DHT22;6928;50.546;7.120;2022-07-23T06:08:41;18.58;79.46
13713;DHT22;6928;50.546;7.120;2022-07-23T06:11:08;18.59;79.11
13713;DHT22;6928;50.546;7.120;2022-07-23T06:13:34;18.56;79.42
13713;DHT22;6928;50.546;7.120;2022-07-23T06:16:03;18.62;79.03
13713;DHT22;6928;50.546;7.120;2022-07-23T06:18:30;18.56;79.08
13713;DHT22;6928;50.546;7.120;2022-07-23T06:20:57;18.44;79.47
13713;DHT22;6928;50.546;7.120;2022-07-23T06:23:23;18.58;79.80
13713;DHT22;6928;50.546;7.120;2022-07-23T06:25:50;18.73;79.45
13713;DHT22;6928;50.546;7.120;2022-07-23T06:28:17;18.72;79.78
13713;DHT22;6928;50.546;7.120;2022-07-23T06:30:44;18.58;80.28
13713;DHT22;6928;50.546;7.120;2022-07-23T06:33:12;18.53;80.51
13713;DHT22;6928;50.546;7.120;2022-07-23T06:35:39;18.55;80.50
13713;DHT22;6928;50.546;7.120;2022-07-23T06:38:06;18.60;80.61
13713;DHT22;6928;50.546;7.120;2022-07-23T06:40:33;18.73;80.41
13713;DHT22;6928;50.546;7.120;2022-07-23T06:42:59;18.63;80.25
13713;DHT22;6928;50.546;7.120;2022-07-23T06:45:27;18.65;80.45
13713;DHT22;6928;50.546;7.120;2022-07-23T06:47:53;18.83;79.78
13713;DHT22;6928;50.546;7.120;2022-07-23T06:50:22;18.97;79.20
13713;DHT22;6928;50.546;7.120;2022-07-23T06:52:48;18.97;79.06
13713;DHT22;6928;50.546;7.120;2022-07-23T06:55:15;18.80;78.61
13713;DHT22;6928;50.546;7.120;2022-07-23T06:57:42;18.96;78.10
13713;DHT22;6928;50.546;7.120;2022-07-23T07:00:10;19.08;77.71
13713;DHT22;6928;50.546;7.120;2022-07-23T07:02:37;19.27;77.48
13713;DHT22;6928;50.546;7.120;2022-07-23T07:05:05;19.41;77.11
13713;DHT22;6928;50.546;7.120;2022-07-23T07:07:33;19.45;76.31
13713;DHT22;6928;50.546;7.120;2022-07-23T07:10:00;19.61;76.37
13713;DHT22;6928;50.546;7.120;2022-07-23T07:12:27;19.52;74.92
13713;DHT22;6928;50.546;7.120;2022-07-23T07:14:54;19.69;75.17
13713;DHT22;6928;50.546;7.120;2022-07-23T07:17:22;19.59;73.10
13713;DHT22;6928;50.546;7.120;2022-07-23T07:19:49;19.52;72.54
13713;DHT22;6928;50.546;7.120;2022-07-23T07:22:15;19.80;71.66
13713;DHT22;6928;50.546;7.120;2022-07-23T07:24:43;19.96;71.60
13713;DHT22;6928;50.546;7.120;2022-07-23T07:27:10;19.92;72.13
13713;DHT22;6928;50.546;7.120;2022-07-23T07:29:37;20.02;71.45
13713;DHT22;6928;50.546;7.120;2022-07-23T07:32:04;19.96;70.55
13713;DHT22;6928;50.546;7.120;2022-07-23T07:34:31;20.06;70.49
13713;DHT22;6928;50.546;7.120;2022-07-23T07:36:58;20.13;69.52
13713;DHT22;6928;50.546;7.120;2022-07-23T07:39:24;20.16;70.58
13713;DHT22;6928;50.546;7.120;2022-07-23T07:41:52;20.21;69.87
13713;DHT22;6928;50.546;7.120;2022-07-23T07:44:19;20.41;69.48
13713;DHT22;6928;50.546;7.120;2022-07-23T07:46:46;20.27;69.43
13713;DHT22;6928;50.546;7.120;2022-07-23T07:49:13;20.51;69.10
13713;DHT22;6928;50.546;7.120;2022-07-23T07:51:39;20.58;69.34
13713;DHT22;6928;50.546;7.120;2022-07-23T07:54:06;20.61;69.40
13713;DHT22;6928;50.546;7.120;2022-07-23T07:56:33;20.36;70.05
13713;DHT22;6928;50.546;7.120;2022-07-23T07:59:01;20.57;69.16
13713;DHT22;6928;50.546;7.120;2022-07-23T08:01:27;20.85;68.87
13713;DHT22;6928;50.546;7.120;2022-07-23T08:03:54;20.52;69.20
13713;DHT22;6928;50.546;7.120;2022-07-23T08:06:22;20.51;69.98
13713;DHT22;6928;50.546;7.120;2022-07-23T08:08:48;20.57;69.39
13713;DHT22;6928;50.546;7.120;2022-07-23T08:11:15;20.44;68.42
13713;DHT22;6928;50.546;7.120;2022-07-23T08:13:42;20.55;68.38
13713;DHT22;6928;50.546;7.120;2022-07-23T08:16:11;20.54;68.64
13713;DHT22;6928;50.546;7.120;2022-07-23T08:18:38;20.89;68.27
13713;DHT22;6928;50.546;7.120;2022-07-23T08:21:05;20.88;68.19
13713;DHT22;6928;50.546;7.120;2022-07-23T08:23:32;21.02;67.81
13713;DHT22;6928;50.546;7.120;2022-07-23T08:26:00;21.50;66.18
13713;DHT22;6928;50.546;7.120;2022-07-23T08:28:27;21.33;66.58
13713;DHT22;6928;50.546;7.120;2022-07-23T08:30:54;21.40;66.61
13713;DHT22;6928;50.546;7.120;2022-07-23T08:33:22;21.60;65.12
13713;DHT22;6928;50.546;7.120;2022-07-23T08:35:50;21.50;64.57
13713;DHT22;6928;50.546;7.120;2022-07-23T08:38:20;21.42;65.31
13713;DHT22;6928;50.546;7.120;2022-07-23T08:40:51;21.98;63.68
13713;DHT22;6928;50.546;7.120;2022-07-23T08:43:23;21.55;64.05
13713;DHT22;6928;50.546;7.120;2022-07-23T08:45:52;21.37;64.12
13713;DHT22;6928;50.546;7.120;2022-07-23T08:48:26;21.87;63.48
13713;DHT22;6928;50.546;7.120;2022-07-23T08:50:54;21.74;63.96
13713;DHT22;6928;50.546;7.120;2022-07-23T08:53:23;21.91;63.10
13713;DHT22;6928;50.546;7.120;2022-07-23T08:55:53;21.57;63.76
13713;DHT22;6928;50.546;7.120;2022-07-23T08:58:20;21.65;63.47
13713;DHT22;6928;50.546;7.120;2022-07-23T09:00:47;21.82;63.05
13713;DHT22;6928;50.546;7.120;2022-07-23T09:03:17;22.16;63.07
13713;DHT22;6928;50.546;7.120;2022-07-23T09:05:46;21.84;62.91
13713;DHT22;6928;50.546;7.120;2022-07-23T09:08:15;22.40;62.99
13713;DHT22;6928;50.546;7.120;2022-07-23T09:10:52;22.37;62.34
13713;DHT22;6928;50.546;7.120;2022-07-23T09:13:34;22.32;61.90
13713;DHT22;6928;50.546;7.120;2022-07-23T09:16:05;22.18;61.40
13713;DHT22;6928;50.546;7.120;2022-07-23T09:18:36;22.18;61.70
13713;DHT22;6928;50.546;7.120;2022-07-23T09:21:26;22.52;61.63
13713;DHT22;6928;50.546;7.120;2022-07-23T09:23:57;22.59;61.60
13713;DHT22;6928;50.546;7.120;2022-07-23T09:26:32;22.90;59.36
13713;DHT22;6928;50.546;7.120;2022-07-23T09:29:04;22.83;59.75
13713;DHT22;6928;50.546;7.120;2022-07-23T09:31:43;22.90;60.32
13713;DHT22;6928;50.546;7.120;2022-07-23T09:34:18;22.92;58.39
13713;DHT22;6928;50.546;7.120;2022-07-23T09:36:46;22.46;60.09
13713;DHT22;6928;50.546;7.120;2022-07-23T09:39:16;22.81;60.91
13713;DHT22;6928;50.546;7.120;2022-07-23T09:41:48;23.38;59.83
13713;DHT22;6928;50.546;7.120;2022-07-23T09:44:19;23.24;59.17
13713;DHT22;6928;50.546;7.120;2022-07-23T09:46:48;23.39;58.66
13713;DHT22;6928;50.546;7.120;2022-07-23T09:49:20;23.37;57.83
13713;DHT22;6928;50.546;7.120;2022-07-23T09:51:52;23.85;57.16
13713;DHT22;6928;50.546;7.120;2022-07-23T09:54:32;23.96;56.91
13713;DHT22;6928;50.546;7.120;2022-07-23T09:57:03;23.70;57.22
13713;DHT22;6928;50.546;7.120;2022-07-23T09:59:34;23.50;58.21
13713;DHT22;6928;50.546;7.120;2022-07-23T10:02:04;23.48;57.47
13713;DHT22;6928;50.546;7.120;2022-07-23T10:04:31;23.78;57.93
13713;DHT22;6928;50.546;7.120;2022-07-23T10:07:04;23.45;57.66
13713;DHT22;6928;50.546;7.120;2022-07-23T10:09:33;23.73;56.70
13713;DHT22;6928;50.546;7.120;2022-07-23T10:12:03;23.82;54.28
13713;DHT22;6928;50.546;7.120;2022-07-23T10:14:57;24.13;54.57
13713;DHT22;6928;50.546;7.120;2022-07-23T10:17:24;24.43;54.01
13713;DHT22;6928;50.546;7.120;2022-07-23T10:19:51;24.43;53.71
13713;DHT22;6928;50.546;7.120;2022-07-23T10:22:23;24.13;53.33
13713;DHT22;6928;50.546;7.120;2022-07-23T10:25:00;24.03;53.82
13713;DHT22;6928;50.546;7.120;2022-07-23T10:27:50;23.08;55.83
13713;DHT22;6928;50.546;7.120;2022-07-23T10:30:30;23.92;53.97
13713;DHT22;6928;50.546;7.120;2022-07-23T10:33:15;24.10;54.74
13713;DHT22;6928;50.546;7.120;2022-07-23T10:35:49;24.25;53.23
13713;DHT22;6928;50.546;7.120;2022-07-23T10:38:25;24.48;50.16
13713;DHT22;6928;50.546;7.120;2022-07-23T10:40:56;24.00;49.91
13713;DHT22;6928;50.546;7.120;2022-07-23T10:43:22;24.13;51.23
13713;DHT22;6928;50.546;7.120;2022-07-23T10:45:50;24.43;49.43
13713;DHT22;6928;50.546;7.120;2022-07-23T10:48:18;24.38;53.28
13713;DHT22;6928;50.546;7.120;2022-07-23T10:51:07;24.55;52.72
13713;DHT22;6928;50.546;7.120;2022-07-23T10:53:56;24.33;53.64
13713;DHT22;6928;50.546;7.120;2022-07-23T10:57:05;24.43;53.17
13713;DHT22;6928;50.546;7.120;2022-07-23T11:00:16;24.38;53.42
13713;DHT22;6928;50.546;7.120;2022-07-23T11:02:45;24.37;52.81
13713;DHT22;6928;50.546;7.120;2022-07-23T11:05:14;23.62;53.76
13713;DHT22;6928;50.546;7.120;2022-07-23T11:08:14;24.90;51.41
13713;DHT22;6928;50.546;7.120;2022-07-23T11:10:46;24.80;51.95
13713;DHT22;6928;50.546;7.120;2022-07-23T11:13:47;25.09;51.31
13713;DHT22;6928;50.546;7.120;2022-07-23T11:16:29;25.48;49.75
13713;DHT22;6928;50.546;7.120;2022-07-23T11:19:07;25.07;51.36
13713;DHT22;6928;50.546;7.120;2022-07-23T11:21:46;24.92;51.89
13713;DHT22;6928;50.546;7.120;2022-07-23T11:24:19;25.20;51.56
13713;DHT22;6928;50.546;7.120;2022-07-23T11:26:57;25.40;51.29
13713;DHT22;6928;50.546;7.120;2022-07-23T11:29:47;25.58;51.08
13713;DHT22;6928;50.546;7.120;2022-07-23T11:32:28;24.80;51.09
13713;DHT22;6928;50.546;7.120;2022-07-23T11:34:59;25.23;51.56
13713;DHT22;6928;50.546;7.120;2022-07-23T11:37:33;24.96;50.95
13713;DHT22;6928;50.546;7.120;2022-07-23T11:40:03;25.05;50.88
13713;DHT22;6928;50.546;7.120;2022-07-23T11:42:32;25.40;51.28
13713;DHT22;6928;50.546;7.120;2022-07-23T11:45:00;25.54;50.86
13713;DHT22;6928;50.546;7.120;2022-07-23T11:47:27;25.22;51.30
13713;DHT22;6928;50.546;7.120;2022-07-23T11:49:56;25.54;51.60
13713;DHT22;6928;50.546;7.120;2022-07-23T11:52:28;26.02;50.24
13713;DHT22;6928;50.546;7.120;2022-07-23T11:54:59;25.84;50.02
13713;DHT22;6928;50.546;7.120;2022-07-23T11:57:29;26.19;49.19
13713;DHT22;6928;50.546;7.120;2022-07-23T12:00:07;25.65;50.24
13713;DHT22;6928;50.546;7.120;2022-07-23T12:02:35;25.85;49.49
13713;DHT22;6928;50.546;7.120;2022-07-23T12:05:05;25.54;50.41
13713;DHT22;6928;50.546;7.120;2022-07-23T12:07:34;25.57;50.28
13713;DHT22;6928;50.546;7.120;2022-07-23T12:10:04;25.58;50.42
13713;DHT22;6928;50.546;7.120;2022-07-23T12:12:36;25.80;51.18
13713;DHT22;6928;50.546;7.120;2022-07-23T12:15:07;25.78;50.32
13713;DHT22;6928;50.546;7.120;2022-07-23T12:17:36;26.01;51.92
13713;DHT22;6928;50.546;7.120;2022-07-23T12:20:07;26.10;49.94
13713;DHT22;6928;50.546;7.120;2022-07-23T12:22:38;26.02;49.68
13713;DHT22;6928;50.546;7.120;2022-07-23T12:25:09;26.01;49.55
13713;DHT22;6928;50.546;7.120;2022-07-23T12:27:37;26.32;48.85
13713;DHT22;6928;50.546;7.120;2022-07-23T12:30:21;26.18;48.28
13713;DHT22;6928;50.546;7.120;2022-07-23T12:32:52;25.91;48.26
13713;DHT22;6928;50.546;7.120;2022-07-23T12:35:20;26.28;48.29
13713;DHT22;6928;50.546;7.120;2022-07-23T12:37:49;26.10;48.57
13713;DHT22;6928;50.546;7.120;2022-07-23T12:40:27;26.63;48.00
13713;DHT22;6928;50.546;7.120;2022-07-23T12:42:56;25.80;48.86
13713;DHT22;6928;50.546;7.120;2022-07-23T12:45:26;26.08;48.44
13713;DHT22;6928;50.546;7.120;2022-07-23T12:48:02;26.44;48.19
13713;DHT22;6928;50.546;7.120;2022-07-23T12:50:49;26.46;47.78
13713;DHT22;6928;50.546;7.120;2022-07-23T12:53:18;27.14;47.35
13713;DHT22;6928;50.546;7.120;2022-07-23T12:55:46;26.93;46.69
13713;DHT22;6928;50.546;7.120;2022-07-23T12:58:15;26.21;48.09
13713;DHT22;6928;50.546;7.120;2022-07-23T13:00:59;26.32;46.09
13713;DHT22;6928;50.546;7.120;2022-07-23T13:03:33;26.90;45.81
13713;DHT22;6928;50.546;7.120;2022-07-23T13:06:01;26.61;46.79
13713;DHT22;6928;50.546;7.120;2022-07-23T13:08:31;26.36;47.75
13713;DHT22;6928;50.546;7.120;2022-07-23T13:10:59;26.95;46.68
13713;DHT22;6928;50.546;7.120;2022-07-23T13:13:28;26.42;46.57
13713;DHT22;6928;50.546;7.120;2022-07-23T13:15:58;27.02;46.15
13713;DHT22;6928;50.546;7.120;2022-07-23T13:18:26;26.56;46.93
13713;DHT22;6928;50.546;7.120;2022-07-23T13:20:53;26.33;46.84
13713;DHT22;6928;50.546;7.120;2022-07-23T13:23:20;26.81;46.90
13713;DHT22;6928;50.546;7.120;2022-07-23T13:25:48;26.49;47.43
13713;DHT22;6928;50.546;7.120;2022-07-23T13:28:16;26.76;47.90
13713;DHT22;6928;50.546;7.120;2022-07-23T13:30:44;26.28;48.16
13713;DHT22;6928;50.546;7.120;2022-07-23T13:33:12;26.76;47.23
13713;DHT22;6928;50.546;7.120;2022-07-23T13:35:39;26.37;47.84
13713;DHT22;6928;50.546;7.120;2022-07-23T13:38:06;26.47;48.25
13713;DHT22;6928;50.546;7.120;2022-07-23T13:40:39;26.80;48.07
13713;DHT22;6928;50.546;7.120;2022-07-23T13:43:08;26.88;47.78
13713;DHT22;6928;50.546;7.120;2022-07-23T13:45:35;26.47;48.23
13713;DHT22;6928;50.546;7.120;2022-07-23T13:48:04;26.47;48.40
13713;DHT22;6928;50.546;7.120;2022-07-23T13:50:33;26.42;47.39
13713;DHT22;6928;50.546;7.120;2022-07-23T13:53:02;26.44;48.04
13713;DHT22;6928;50.546;7.120;2022-07-23T13:55:29;26.50;46.98
13713;DHT22;6928;50.546;7.120;2022-07-23T13:57:56;26.39;47.39
13713;DHT22;6928;50.546;7.120;2022-07-23T14:00:23;26.37;46.67
13713;DHT22;6928;50.546;7.120;2022-07-23T14:02:51;26.49;46.43
13713;DHT22;6928;50.546;7.120;2022-07-23T14:05:18;26.65;47.36
13713;DHT22;6928;50.546;7.120;2022-07-23T14:07:46;26.57;47.04
13713;DHT22;6928;50.546;7.120;2022-07-23T14:10:16;26.84;46.24
13713;DHT22;6928;50.546;7.120;2022-07-23T14:12:43;26.70;46.02
13713;DHT22;6928;50.546;7.120;2022-07-23T14:15:10;26.79;45.50
13713;DHT22;6928;50.546;7.120;2022-07-23T14:17:38;26.79;46.12
13713;DHT22;6928;50.546;7.120;2022-07-23T14:20:07;26.71;45.47
13713;DHT22;6928;50.546;7.120;2022-07-23T14:22:34;26.47;45.39
13713;DHT22;6928;50.546;7.120;2022-07-23T14:25:04;26.80;46.15
13713;DHT22;6928;50.546;7.120;2022-07-23T14:27:31;26.73;45.78
13713;DHT22;6928;50.546;7.120;2022-07-23T14:29:58;26.83;46.46
13713;DHT22;6928;50.546;7.120;2022-07-23T14:32:26;26.68;46.50
13713;DHT22;6928;50.546;7.120;2022-07-23T14:34:53;26.77;46.64
13713;DHT22;6928;50.546;7.120;2022-07-23T14:37:19;26.88;45.48
13713;DHT22;6928;50.546;7.120;2022-07-23T14:39:46;26.59;44.96
13713;DHT22;6928;50.546;7.120;2022-07-23T14:42:15;26.68;45.79
13713;DHT22;6928;50.546;7.120;2022-07-23T14:44:42;26.63;45.98
13713;DHT22;6928;50.546;7.120;2022-07-23T14:47:09;26.65;46.23
13713;DHT22;6928;50.546;7.120;2022-07-23T14:49:36;26.60;47.30
13713;DHT22;6928;50.546;7.120;2022-07-23T14:52:04;26.64;47.18
13713;DHT22;6928;50.546;7.120;2022-07-23T14:54:32;26.65;47.28
13713;DHT22;6928;50.546;7.120;2022-07-23T14:57:01;26.57;47.24
13713;DHT22;6928;50.546;7.120;2022-07-23T14:59:30;26.54;46.73
13713;DHT22;6928;50.546;7.120;2022-07-23T15:01:58;26.35;47.89
13713;DHT22;6928;50.546;7.120;2022-07-23T15:04:25;26.64;47.67
13713;DHT22;6928;50.546;7.120;2022-07-23T15:06:52;26.64;47.49
13713;DHT22;6928;50.546;7.120;2022-07-23T15:09:19;26.61;47.43
13713;DHT22;6928;50.546;7.120;2022-07-23T15:11:46;26.67;47.63
13713;DHT22;6928;50.546;7.120;2022-07-23T15:14:13;26.97;46.34
13713;DHT22;6928;50.546;7.120;2022-07-23T15:16:42;26.73;47.16
13713;DHT22;6928;50.546;7.120;2022-07-23T15:19:09;26.77;47.72
13713;DHT22;6928;50.546;7.120;2022-07-23T15:21:39;26.90;46.47
13713;DHT22;6928;50.546;7.120;2022-07-23T15:24:07;26.80;47.10
13713;DHT22;6928;50.546;7.120;2022-07-23T15:26:34;26.88;46.28
13713;DHT22;6928;50.546;7.120;2022-07-23T15:29:02;26.77;46.12
13713;DHT22;6928;50.546;7.120;2022-07-23T15:31:31;26.97;46.52
13713;DHT22;6928;50.546;7.120;2022-07-23T15:34:00;26.93;46.82
13713;DHT22;6928;50.546;7.120;2022-07-23T15:36:27;26.94;46.85
13713;DHT22;6928;50.546;7.120;2022-07-23T15:38:54;26.70;46.84
13713;DHT22;6928;50.546;7.120;2022-07-23T15:41:21;26.56;47.17
13713;DHT22;6928;50.546;7.120;2022-07-23T15:43:48;26.56;47.06
13713;DHT22;6928;50.546;7.120;2022-07-23T15:46:17;26.40;47.15
13713;DHT22;6928;50.546;7.120;2022-07-23T15:48:44;26.49;47.33
13713;DHT22;6928;50.546;7.120;2022-07-23T15:51:13;26.49;46.96
13713;DHT22;6928;50.546;7.120;2022-07-23T15:53:41;26.29;47.47
13713;DHT22;6928;50.546;7.120;2022-07-23T15:56:09;26.70;46.53
13713;DHT22;6928;50.546;7.120;2022-07-23T15:58:37;26.59;47.49